createdAt,value
2023-02-25T00:00:17.917Z,49.50
2023-02-25T00:05:17.848Z,40.95
2023-02-25T00:10:16.040Z,38.90
2023-02-25T00:15:14.177Z,41.53
2023-02-25T00:20:14.033Z,39.95
2023-02-25T00:25:14.486Z,33.85
2023-02-25T00:30:13.293Z,28.15
2023-02-25T00:35:12.963Z,26.27
2023-02-25T00:40:15.116Z,28.52
2023-02-25T00:45:14.605Z,36.63
2023-02-25T00:50:14.367Z,28.60
2023-02-25T00:55:12.512Z,23.25
2023-02-25T01:00:16.156Z,20.95
2023-02-25T01:05:16.261Z,27.48
2023-02-25T01:10:14.487Z,17.58
2023-02-25T01:15:13.430Z,21.73
2023-02-25T01:20:13.102Z,26.42
2023-02-25T01:25:16.381Z,23.42
2023-02-25T01:30:14.563Z,23.40
2023-02-25T01:35:12.722Z,21.13
2023-02-25T01:40:16.464Z,23.25
2023-02-25T01:45:28.061Z,24.55
2023-02-25T01:50:29.987Z,25.65
2023-02-25T01:55:28.177Z,21.25
2023-02-25T02:00:28.753Z,20.70
2023-02-25T02:05:33.406Z,22.77
2023-02-25T02:10:31.548Z,19.50
2023-02-25T02:15:34.036Z,21.27
2023-02-25T02:20:36.610Z,17.17
2023-02-25T02:25:56.039Z,14.15
2023-02-25T02:31:08.419Z,15.13
2023-02-25T02:36:09.076Z,16.17
2023-02-25T02:41:08.967Z,12.77
2023-02-25T02:46:11.307Z,20.88
2023-02-25T02:51:12.746Z,13.35
2023-02-25T02:56:13.682Z,14.48
2023-02-25T03:01:15.001Z,12.93
2023-02-25T03:06:15.593Z,12.68
2023-02-25T03:11:14.257Z,13.52
2023-02-25T03:16:22.011Z,13.82
2023-02-25T03:21:22.804Z,15.50
2023-02-25T03:26:24.459Z,14.68
2023-02-25T03:31:30.698Z,14.70
2023-02-25T03:36:32.595Z,16.33
2023-02-25T03:41:35.420Z,19.90
2023-02-25T03:46:36.253Z,17.23
2023-02-25T03:51:36.205Z,17.17
2023-02-25T03:56:41.510Z,17.45
2023-02-25T04:01:42.047Z,20.35
2023-02-25T04:06:40.200Z,18.52
2023-02-25T04:11:39.117Z,21.42
2023-02-25T04:16:37.367Z,20.38
2023-02-25T04:21:39.514Z,21.65
2023-02-25T04:26:37.814Z,21.95
2023-02-25T04:31:36.058Z,24.15
2023-02-25T04:36:35.064Z,22.55
2023-02-25T04:41:35.400Z,21.40
2023-02-25T04:46:34.061Z,20.05
2023-02-25T04:51:32.267Z,19.02
2023-02-25T04:56:30.413Z,17.00
2023-02-25T05:01:31.402Z,17.17
2023-02-25T05:06:29.857Z,22.30
2023-02-25T05:11:29.460Z,22.85
2023-02-25T05:16:27.899Z,28.30
2023-02-25T05:21:27.912Z,22.05
2023-02-25T05:26:26.637Z,21.60
2023-02-25T05:31:26.149Z,22.33
2023-02-25T05:36:27.826Z,25.30
2023-02-25T05:41:27.767Z,20.85
2023-02-25T05:46:26.841Z,23.63
2023-02-25T05:51:25.387Z,24.40
2023-02-25T05:56:25.462Z,28.02
2023-02-25T06:01:27.823Z,23.05
2023-02-25T06:06:26.869Z,26.08
2023-02-25T06:11:25.846Z,26.23
2023-02-25T06:16:26.623Z,28.50
2023-02-25T06:21:25.027Z,26.27
2023-02-25T06:26:23.690Z,70.07
2023-02-25T06:31:23.587Z,57.85
2023-02-25T06:36:23.481Z,84.80
2023-02-25T06:41:22.636Z,72.57
2023-02-25T06:46:22.306Z,51.72
2023-02-25T06:51:20.685Z,31.95
2023-02-25T06:56:22.139Z,82.35
2023-02-25T07:01:20.719Z,72.07
2023-02-25T07:06:19.394Z,92.40
2023-02-25T07:11:29.214Z,144.15
2023-02-25T07:16:29.935Z,127.60
2023-02-25T07:21:29.439Z,102.15
2023-02-25T07:26:29.346Z,93.60
2023-02-25T07:31:28.847Z,83.10
2023-02-25T07:36:28.654Z,166.95
2023-02-25T07:41:26.811Z,128.93
2023-02-25T07:46:26.689Z,130.43
2023-02-25T07:51:25.698Z,60.75
2023-02-25T07:56:25.384Z,74.57
2023-02-25T08:01:25.058Z,68.93
2023-02-25T08:06:25.023Z,70.15
2023-02-25T08:11:24.131Z,55.63
2023-02-25T08:16:22.740Z,91.65
2023-02-25T08:21:23.562Z,90.47
2023-02-25T08:26:24.183Z,77.25
2023-02-25T08:31:23.255Z,70.57
2023-02-25T08:36:23.046Z,47.10
2023-02-25T08:41:22.454Z,42.50
2023-02-25T08:46:22.349Z,31.42
2023-02-25T08:51:21.340Z,29.83
2023-02-25T08:56:19.947Z,28.30
2023-02-25T09:01:18.506Z,21.95
2023-02-25T09:06:18.275Z,31.65
2023-02-25T09:11:16.902Z,30.95
2023-02-25T09:16:17.661Z,30.58
2023-02-25T09:21:16.184Z,32.75
2023-02-25T09:26:16.013Z,23.13
2023-02-25T09:31:14.592Z,23.92
2023-02-25T09:36:13.903Z,28.38
2023-02-25T09:41:18.313Z,33.65
2023-02-25T09:46:18.872Z,38.20
2023-02-25T09:51:20.671Z,23.80
2023-02-25T09:56:21.086Z,35.92
2023-02-25T10:01:27.395Z,34.20
2023-02-25T10:06:29.908Z,37.78
2023-02-25T10:11:39.406Z,39.60
2023-02-25T10:16:44.066Z,29.35
2023-02-25T10:21:53.186Z,26.67
2023-02-25T10:26:55.993Z,32.92
2023-02-25T10:31:55.902Z,47.22
2023-02-25T10:36:56.081Z,36.17
2023-02-25T10:41:55.708Z,26.67
2023-02-25T10:46:55.446Z,38.95
2023-02-25T10:52:03.086Z,36.08
2023-02-25T10:57:08.463Z,47.83
2023-02-25T11:02:07.194Z,44.30
2023-02-25T11:07:24.019Z,47.78
2023-02-25T11:12:24.826Z,54.65
2023-02-25T11:17:23.048Z,42.55
2023-02-25T11:22:23.041Z,52.53
2023-02-25T11:27:27.030Z,35.58
2023-02-25T11:32:25.390Z,34.95
2023-02-25T11:37:28.325Z,50.83
2023-02-25T11:42:30.183Z,35.28
2023-02-25T11:47:29.683Z,35.08
2023-02-25T11:52:32.313Z,45.78
2023-02-25T11:57:36.167Z,40.80
2023-02-25T12:02:40.489Z,41.67
2023-02-25T12:08:12.030Z,25.40
2023-02-25T12:13:23.384Z,32.92
2023-02-25T12:18:40.307Z,25.00
2023-02-25T12:23:56.884Z,28.55
2023-02-25T12:28:59.283Z,34.35
2023-02-25T12:34:09.840Z,35.72
2023-02-25T12:39:25.896Z,26.65
2023-02-25T12:44:42.222Z,29.20
2023-02-25T12:49:51.703Z,40.38
2023-02-25T12:55:06.110Z,26.45
2023-02-25T13:00:12.937Z,31.75
2023-02-25T13:05:22.814Z,29.63
2023-02-25T13:10:35.601Z,31.63
2023-02-25T13:15:40.440Z,33.72
2023-02-25T13:25:47.274Z,31.20
2023-02-25T13:30:50.593Z,33.53
2023-02-25T13:35:54.781Z,52.60
2023-02-25T13:40:59.594Z,31.93
2023-02-25T13:46:07.184Z,27.30
2023-02-25T13:51:21.242Z,32.13
2023-02-25T13:56:28.584Z,27.80
2023-02-25T14:01:32.057Z,31.70
2023-02-25T14:06:39.169Z,32.13
2023-02-25T14:11:44.717Z,45.80
2023-02-25T14:16:52.008Z,39.45
2023-02-25T14:22:10.670Z,50.80
2023-02-25T14:27:13.853Z,51.55
2023-02-25T14:32:19.907Z,93.47
2023-02-25T14:37:29.272Z,53.85
2023-02-25T14:42:33.884Z,47.03
2023-02-25T14:47:35.280Z,38.53
2023-02-25T14:52:42.395Z,33.90
2023-02-25T14:57:58.522Z,33.92
2023-02-25T15:03:04.405Z,58.88
2023-02-25T15:08:24.490Z,70.18
2023-02-25T15:13:44.307Z,51.40
2023-02-25T15:18:57.910Z,119.05
2023-02-25T15:23:56.415Z,90.03
2023-02-25T15:28:55.159Z,71.40
2023-02-25T15:33:56.080Z,112.88
2023-02-25T15:38:55.514Z,76.15
2023-02-25T15:43:54.290Z,69.05
2023-02-25T15:49:05.466Z,37.25
2023-02-25T15:54:03.771Z,68.63
2023-02-25T15:59:01.928Z,92.20
2023-02-25T16:04:00.172Z,56.42
2023-02-25T16:09:04.261Z,86.32
2023-02-25T16:14:05.418Z,82.70
2023-02-25T16:19:04.434Z,44.10
2023-02-25T16:24:07.789Z,40.28
2023-02-25T16:29:11.908Z,37.95
2023-02-25T16:34:13.642Z,49.73
2023-02-25T16:39:14.936Z,27.00
2023-02-25T16:44:18.113Z,53.25
2023-02-25T16:49:20.932Z,51.42
2023-02-25T16:54:22.518Z,35.30
2023-02-25T16:59:21.777Z,29.42
2023-02-25T17:04:21.292Z,32.92
2023-02-25T17:09:24.948Z,35.55
2023-02-25T17:14:23.915Z,30.00
2023-02-25T17:19:23.313Z,27.67
2023-02-25T17:24:23.853Z,43.80
2023-02-25T17:29:23.386Z,28.55
2023-02-25T17:34:26.795Z,47.00
2023-02-25T17:39:25.071Z,35.90
2023-02-25T17:44:42.925Z,172.88
2023-02-25T17:49:44.157Z,252.25
2023-02-25T17:54:46.147Z,91.53
2023-02-25T17:59:49.078Z,164.13
2023-02-25T18:04:50.950Z,212.52
2023-02-25T18:09:49.386Z,52.13
2023-02-25T18:14:52.371Z,119.55
2023-02-25T18:19:52.201Z,238.55
2023-02-25T18:24:54.458Z,142.65
2023-02-25T18:29:52.765Z,118.50
2023-02-25T18:34:52.282Z,61.67
2023-02-25T18:39:51.375Z,71.70
2023-02-25T18:44:49.756Z,46.05
2023-02-25T18:49:48.681Z,171.02
2023-02-25T18:54:48.603Z,53.33
2023-02-25T18:59:46.844Z,34.70
2023-02-25T19:04:45.038Z,45.55
2023-02-25T19:09:43.229Z,42.65
2023-02-25T19:14:42.855Z,46.35
2023-02-25T19:19:41.130Z,41.70
2023-02-25T19:24:39.599Z,51.60
2023-02-25T19:29:37.771Z,47.28
2023-02-25T19:34:37.060Z,35.00
2023-02-25T19:39:36.562Z,28.48
2023-02-25T19:44:34.746Z,27.25
2023-02-25T19:49:32.953Z,33.45
2023-02-25T19:54:31.084Z,32.97
2023-02-25T19:59:31.979Z,42.00
2023-02-25T20:04:30.151Z,57.13
2023-02-25T20:09:28.291Z,42.38
2023-02-25T20:14:28.064Z,36.17
2023-02-25T20:19:30.217Z,29.63
2023-02-25T20:24:28.604Z,19.38
2023-02-25T20:29:26.780Z,29.58
2023-02-25T20:34:26.330Z,27.20
2023-02-25T20:39:43.117Z,24.17
2023-02-25T20:44:41.786Z,24.70
2023-02-25T20:49:40.529Z,22.60
2023-02-25T20:54:41.192Z,32.78
2023-02-25T20:59:39.940Z,42.83
2023-02-25T21:04:38.436Z,38.67
2023-02-25T21:09:36.655Z,46.92
2023-02-25T21:14:36.222Z,80.30
2023-02-25T21:19:34.350Z,50.40
2023-02-25T21:24:33.711Z,48.40
2023-02-25T21:29:32.296Z,41.50
2023-02-25T21:34:31.993Z,40.10
2023-02-25T21:39:30.141Z,34.17
2023-02-25T21:44:28.410Z,36.47
2023-02-25T21:49:28.381Z,26.95
2023-02-25T21:54:28.620Z,28.00
2023-02-25T21:59:27.779Z,25.88
2023-02-25T22:04:25.956Z,60.83
2023-02-25T22:09:24.070Z,35.00
2023-02-25T22:14:24.688Z,31.13
2023-02-25T22:19:22.792Z,56.97
2023-02-25T22:24:20.898Z,46.70
2023-02-25T22:29:19.156Z,41.85
2023-02-25T22:34:18.872Z,65.55
2023-02-25T22:39:17.168Z,32.35
2023-02-25T22:44:15.272Z,29.95
2023-02-25T22:49:13.408Z,24.13
2023-02-25T22:54:13.536Z,21.98
2023-02-25T22:59:12.184Z,27.83
2023-02-25T23:04:10.309Z,24.15
2023-02-25T23:09:08.842Z,21.23
2023-02-25T23:14:08.338Z,27.63
2023-02-25T23:19:06.465Z,34.08
2023-02-25T23:24:05.532Z,28.48
2023-02-25T23:29:05.534Z,17.23
2023-02-25T23:34:06.755Z,21.77
2023-02-25T23:39:05.532Z,20.23
2023-02-25T23:44:03.869Z,16.52
2023-02-25T23:49:02.987Z,24.92
2023-02-25T23:54:03.764Z,25.15
2023-02-25T23:59:01.954Z,20.55
